Altamont, Utah
Current Conditions -  °F | °C
As of 2:53 PM on Thursday 23 Oct 2014 (Local Time) from KVEL Reporting Station
Clear Clear  
Wind Chill: 62°   Ceiling: Unl
Heat Index: 62°   Visibility: 10mi
Dew Point: 37°   Wind: 5mph
Humidity: 39%   Direction: 100°E
Pressure: 30.17"   Gusts: NA
Location:  40.36°N, 110.29°W
Report Text: KVEL 232053Z AUTO 10004KT 10SM CLR 17/03 A3017 RMK AO2 SLP189 T01670028 58026
Loading
Personal Weather Stations






























Interactive Weather Map
Tropical Storm Tracking
New forecast layout! Learn more

10-Day Weather Forecast

Advertisements
Track Severe Weather on mobile